createdAt,value
2022-08-09T00:02:03.300Z,3.70
2022-08-09T00:04:36.898Z,4.45
2022-08-09T00:07:12.984Z,5.90
2022-08-09T00:09:46.328Z,3.47
2022-08-09T00:12:24.439Z,4.05
2022-08-09T00:14:58.407Z,4.92
2022-08-09T00:21:19.012Z,6.60
2022-08-09T00:24:07.748Z,7.92
2022-08-09T00:26:42.683Z,4.87
2022-08-09T00:30:16.179Z,4.58
2022-08-09T00:31:59.893Z,4.12
2022-08-09T00:34:27.175Z,4.78
2022-08-09T00:37:02.254Z,5.62
2022-08-09T00:40:13.899Z,3.85
2022-08-09T00:44:13.074Z,4.00
2022-08-09T00:44:46.940Z,3.98
2022-08-09T00:47:20.442Z,3.90
2022-08-09T00:49:56.505Z,4.58
2022-08-09T00:52:32.452Z,3.92
2022-08-09T00:55:08.098Z,5.10
2022-08-09T00:57:43.023Z,6.92
2022-08-09T01:00:23.657Z,4.58
2022-08-09T01:02:58.299Z,4.50
2022-08-09T01:05:51.069Z,10.00
2022-08-09T01:08:13.810Z,3.80
2022-08-09T01:10:55.245Z,4.80
2022-08-09T01:13:41.728Z,4.42
2022-08-09T01:16:10.469Z,6.33
2022-08-09T01:21:24.870Z,6.83
2022-08-09T01:24:05.347Z,3.65
2022-08-09T01:27:00.496Z,5.47
2022-08-09T01:29:55.191Z,9.88
2022-08-09T01:32:31.281Z,3.60
2022-08-09T01:34:51.489Z,5.10
2022-08-09T01:38:06.440Z,6.75
2022-08-09T01:40:04.362Z,4.35
2022-08-09T01:42:38.435Z,6.30
2022-08-09T01:45:13.789Z,5.30
2022-08-09T01:47:49.737Z,4.62
2022-08-09T01:50:28.984Z,5.50
2022-08-09T01:53:01.985Z,5.87
2022-08-09T01:55:38.811Z,5.12
2022-08-09T01:58:14.404Z,4.95
2022-08-09T02:00:50.967Z,3.58
2022-08-09T02:03:27.203Z,6.15
2022-08-09T02:06:06.449Z,8.33
2022-08-09T02:08:57.717Z,3.33
2022-08-09T02:11:17.084Z,3.67
2022-08-09T02:16:33.625Z,4.70
2022-08-09T02:19:02.001Z,4.92
2022-08-09T02:21:38.329Z,3.70
2022-08-09T02:26:50.593Z,4.65
2022-08-09T02:32:18.819Z,2.87
2022-08-09T02:34:57.702Z,3.55
2022-08-09T02:37:36.677Z,3.47
2022-08-09T02:40:12.838Z,3.77
2022-08-09T02:42:51.218Z,9.73
2022-08-09T02:45:29.620Z,4.33
2022-08-09T02:48:06.196Z,3.30
2022-08-09T02:50:43.544Z,2.90
2022-08-09T02:53:26.670Z,5.15
2022-08-09T02:56:01.028Z,4.47
2022-08-09T02:58:38.050Z,5.85
2022-08-09T03:01:15.304Z,3.47
2022-08-09T03:04:17.538Z,4.80
2022-08-09T03:06:27.249Z,4.90
2022-08-09T03:09:03.157Z,4.55
2022-08-09T03:12:06.287Z,3.60
2022-08-09T03:14:15.924Z,3.72
2022-08-09T03:16:50.048Z,4.20
2022-08-09T03:22:25.724Z,3.62
2022-08-09T03:24:52.178Z,3.85
2022-08-09T03:27:24.831Z,4.72
2022-08-09T03:30:01.383Z,3.27
2022-08-09T03:32:38.403Z,4.60
2022-08-09T03:35:24.265Z,10.85
2022-08-09T03:37:56.706Z,5.37
2022-08-09T03:40:24.705Z,4.60
2022-08-09T03:42:57.852Z,5.95
2022-08-09T03:48:12.626Z,4.67
2022-08-09T03:50:48.502Z,4.22
2022-08-09T03:53:23.962Z,3.70
2022-08-09T03:55:58.923Z,3.90
2022-08-09T03:58:32.098Z,4.12
2022-08-09T04:01:07.222Z,5.50
2022-08-09T04:04:01.359Z,4.40
2022-08-09T04:06:16.172Z,2.67
2022-08-09T04:08:49.925Z,6.12
2022-08-09T04:11:24.997Z,2.72
2022-08-09T04:15:00.656Z,2.35
2022-08-09T04:16:33.071Z,3.92
2022-08-09T04:19:11.171Z,5.28
2022-08-09T04:21:41.369Z,4.37
2022-08-09T04:24:15.066Z,4.58
2022-08-09T04:26:48.101Z,2.30
2022-08-09T04:29:22.560Z,5.50
2022-08-09T04:31:58.643Z,2.55
2022-08-09T04:34:36.397Z,2.80
2022-08-09T04:37:17.523Z,4.47
2022-08-09T04:39:52.471Z,3.37
2022-08-09T04:42:33.991Z,2.10
2022-08-09T04:45:08.935Z,2.87
2022-08-09T04:47:58.726Z,2.70
2022-08-09T04:50:16.862Z,2.87
2022-08-09T04:52:53.137Z,3.40
2022-08-09T04:55:26.740Z,2.77
2022-08-09T04:58:01.907Z,2.40
2022-08-09T05:00:36.764Z,2.50
2022-08-09T05:03:30.248Z,2.50
2022-08-09T05:05:51.741Z,3.47
2022-08-09T05:08:22.713Z,5.58
2022-08-09T05:10:57.626Z,2.47
2022-08-09T05:13:32.902Z,4.40
2022-08-09T05:16:08.485Z,2.30
2022-08-09T05:18:59.286Z,2.45
2022-08-09T05:21:22.983Z,2.70
2022-08-09T05:24:00.647Z,3.20
2022-08-09T05:26:46.098Z,3.25
2022-08-09T05:29:17.415Z,3.65
2022-08-09T05:32:05.980Z,2.52
2022-08-09T05:34:39.048Z,4.50
2022-08-09T05:37:13.971Z,3.67
2022-08-09T05:39:47.227Z,3.75
2022-08-09T05:42:27.867Z,2.42
2022-08-09T05:44:57.013Z,1.90
2022-08-09T05:47:33.094Z,2.60
2022-08-09T05:50:30.097Z,9.70
2022-08-09T05:52:53.429Z,3.70
2022-08-09T05:55:25.191Z,3.25
2022-08-09T05:57:58.845Z,3.87
2022-08-09T06:00:37.431Z,1.50
2022-08-09T06:03:11.170Z,2.45
2022-08-09T06:05:50.241Z,1.40
2022-08-09T06:08:24.388Z,2.05
2022-08-09T06:11:00.621Z,2.02
2022-08-09T06:13:44.855Z,3.47
2022-08-09T06:16:38.670Z,3.25
2022-08-09T06:23:57.874Z,2.20
2022-08-09T06:26:34.416Z,3.12
2022-08-09T06:29:15.819Z,6.40
2022-08-09T06:34:53.205Z,3.17
2022-08-09T06:40:27.264Z,1.62
2022-08-09T06:43:07.669Z,3.17
2022-08-09T06:46:04.970Z,2.47
2022-08-09T06:48:36.698Z,3.40
2022-08-09T06:51:15.775Z,2.45
2022-08-09T06:53:52.084Z,1.98
2022-08-09T06:56:46.189Z,3.12
2022-08-09T07:00:48.790Z,2.45
2022-08-09T07:02:20.080Z,1.82
2022-08-09T07:04:57.018Z,2.72
2022-08-09T07:08:00.932Z,4.70
2022-08-09T07:10:22.474Z,1.82
2022-08-09T07:12:44.842Z,5.17
2022-08-09T07:15:53.785Z,1.67
2022-08-09T07:20:43.458Z,3.47
2022-08-09T07:23:18.689Z,1.65
2022-08-09T07:26:02.313Z,2.72
2022-08-09T07:28:29.195Z,2.08
2022-08-09T07:31:04.172Z,2.10
2022-08-09T07:33:52.920Z,1.10
2022-08-09T07:36:15.071Z,3.70
2022-08-09T07:38:58.353Z,2.75
2022-08-09T07:41:25.163Z,3.05
2022-08-09T07:43:59.892Z,1.90
2022-08-09T07:46:37.972Z,1.80
2022-08-09T07:49:16.799Z,4.45
2022-08-09T07:52:05.749Z,2.92
2022-08-09T07:54:30.852Z,3.67
2022-08-09T07:57:11.880Z,3.08
2022-08-09T07:59:52.227Z,3.58
2022-08-09T08:02:20.251Z,2.67
2022-08-09T08:04:53.849Z,1.75
2022-08-09T08:08:43.231Z,2.70
2022-08-09T08:10:08.816Z,1.17
2022-08-09T08:12:50.331Z,3.45
2022-08-09T08:16:29.799Z,1.98
2022-08-09T08:18:53.756Z,3.67
2022-08-09T08:21:39.479Z,1.62
2022-08-09T08:30:55.258Z,1.37
2022-08-09T08:33:49.527Z,1.50
2022-08-09T08:36:12.020Z,2.27
2022-08-09T08:38:49.632Z,3.77
2022-08-09T08:41:23.672Z,2.85
2022-08-09T08:44:04.431Z,2.33
2022-08-09T08:53:15.916Z,1.67
2022-08-09T08:58:44.440Z,2.45
2022-08-09T09:01:25.131Z,1.75
2022-08-09T09:04:00.228Z,4.50
2022-08-09T09:06:57.449Z,1.80
2022-08-09T09:09:58.029Z,0.93
2022-08-09T09:12:18.535Z,2.98
2022-08-09T09:14:55.614Z,1.82
2022-08-09T09:17:46.448Z,1.22
2022-08-09T09:20:06.691Z,2.20
2022-08-09T09:23:01.706Z,1.45
2022-08-09T09:26:04.056Z,2.30
2022-08-09T09:29:02.783Z,2.10
2022-08-09T09:34:25.307Z,1.25
2022-08-09T09:37:01.801Z,2.90
2022-08-09T09:39:54.658Z,2.15
2022-08-09T09:42:32.684Z,1.25
2022-08-09T09:48:12.012Z,2.60
2022-08-09T09:50:50.896Z,2.22
2022-08-09T09:53:34.423Z,2.15
2022-08-09T09:56:30.945Z,1.47
2022-08-09T09:58:53.511Z,2.67
2022-08-09T10:01:31.229Z,2.80
2022-08-09T10:04:09.921Z,2.02
2022-08-09T10:06:51.961Z,3.40
2022-08-09T10:09:24.395Z,1.00
2022-08-09T10:12:12.102Z,3.10
2022-08-09T10:14:39.754Z,2.27
2022-08-09T10:23:03.140Z,2.95
2022-08-09T10:26:06.007Z,1.17
2022-08-09T10:28:11.129Z,1.52
2022-08-09T10:32:20.933Z,2.22
2022-08-09T10:34:07.880Z,1.17
2022-08-09T10:36:11.525Z,1.00
2022-08-09T10:38:56.103Z,1.30
2022-08-09T10:41:22.678Z,1.25
2022-08-09T10:44:01.868Z,1.55
2022-08-09T10:46:57.588Z,1.60
2022-08-09T10:49:49.709Z,1.30
2022-08-09T10:52:13.612Z,2.02
2022-08-09T10:54:53.298Z,1.40
2022-08-09T10:57:37.680Z,1.20
2022-08-09T11:00:36.011Z,0.88
2022-08-09T11:03:49.766Z,1.35
2022-08-09T11:06:28.587Z,1.37
2022-08-09T11:09:15.780Z,1.30
2022-08-09T11:12:21.292Z,1.80
2022-08-09T11:15:02.359Z,2.05
2022-08-09T11:18:02.764Z,2.30
2022-08-09T11:20:56.981Z,0.78
2022-08-09T11:23:55.316Z,2.25
2022-08-09T11:26:52.218Z,1.12
2022-08-09T11:30:05.822Z,1.92
2022-08-09T11:35:47.272Z,1.75
2022-08-09T11:38:22.397Z,1.37
2022-08-09T11:40:57.055Z,2.25
2022-08-09T11:43:45.671Z,1.40
2022-08-09T11:46:33.087Z,2.22
2022-08-09T11:48:58.157Z,1.12
2022-08-09T11:53:00.758Z,1.50
2022-08-09T11:54:28.927Z,2.95
2022-08-09T11:59:37.993Z,2.45
2022-08-09T12:02:18.263Z,1.50
2022-08-09T12:04:58.126Z,2.52
2022-08-09T12:07:41.666Z,1.62
2022-08-09T12:10:07.724Z,2.77
2022-08-09T12:12:52.958Z,2.13
2022-08-09T12:15:48.566Z,2.65
2022-08-09T12:18:03.190Z,2.83
2022-08-09T12:20:38.186Z,2.85
2022-08-09T12:23:13.003Z,1.00
2022-08-09T12:25:54.572Z,1.70
2022-08-09T12:29:09.804Z,0.85
2022-08-09T12:31:58.510Z,2.77
2022-08-09T12:34:01.997Z,1.35
2022-08-09T12:36:38.422Z,1.55
2022-08-09T12:39:17.746Z,1.10
2022-08-09T12:41:53.882Z,3.65
2022-08-09T12:44:28.930Z,0.72
2022-08-09T12:47:04.802Z,1.45
2022-08-09T12:49:39.394Z,2.20
2022-08-09T12:52:18.305Z,2.45
2022-08-09T12:56:12.209Z,2.25
2022-08-09T12:57:43.093Z,2.52
2022-08-09T13:03:20.666Z,1.17
2022-08-09T13:06:10.729Z,1.42
2022-08-09T13:08:35.406Z,1.95
2022-08-09T13:11:13.280Z,1.47
2022-08-09T13:14:37.305Z,2.08
2022-08-09T13:16:17.615Z,2.67
2022-08-09T13:18:54.326Z,2.37
2022-08-09T13:22:38.180Z,1.98
2022-08-09T13:24:44.903Z,2.35
2022-08-09T13:26:49.859Z,2.22
2022-08-09T13:29:28.561Z,1.07
2022-08-09T13:32:17.562Z,2.27
2022-08-09T13:34:43.093Z,1.35
2022-08-09T13:37:50.868Z,2.65
2022-08-09T13:41:51.801Z,2.50
2022-08-09T13:42:29.083Z,3.67
2022-08-09T13:45:12.201Z,1.65
2022-08-09T13:47:49.506Z,2.40
2022-08-09T13:50:30.329Z,1.55
2022-08-09T13:52:54.827Z,1.75
2022-08-09T13:55:30.407Z,5.28
2022-08-09T13:58:05.004Z,2.10
2022-08-09T14:00:50.630Z,1.67
2022-08-09T14:04:01.137Z,3.83
2022-08-09T14:05:57.259Z,2.17
2022-08-09T14:08:23.907Z,1.55
2022-08-09T14:10:59.600Z,1.92
2022-08-09T14:14:22.539Z,2.02
2022-08-09T14:16:11.937Z,2.85
2022-08-09T14:18:50.092Z,3.67
2022-08-09T14:21:29.511Z,2.33
2022-08-09T14:24:10.399Z,1.82
2022-08-09T14:26:41.365Z,2.08
2022-08-09T14:30:03.917Z,2.20
2022-08-09T14:31:55.535Z,4.17
2022-08-09T14:34:32.528Z,2.33
2022-08-09T14:37:08.525Z,2.60
2022-08-09T14:39:47.823Z,2.35
2022-08-09T14:42:30.950Z,3.13
2022-08-09T14:44:59.616Z,4.55
2022-08-09T14:47:45.270Z,2.00
2022-08-09T14:50:09.420Z,3.40
2022-08-09T14:52:50.009Z,2.83
2022-08-09T14:55:20.980Z,3.87
2022-08-09T14:57:56.217Z,2.67
2022-08-09T15:00:31.215Z,3.62
2022-08-09T15:03:06.963Z,3.22
2022-08-09T15:05:52.376Z,3.12
2022-08-09T15:08:19.725Z,4.20
2022-08-09T15:11:00.964Z,4.62
2022-08-09T15:13:55.957Z,5.00
2022-08-09T15:16:11.277Z,2.95
2022-08-09T15:18:49.086Z,4.05
2022-08-09T15:22:01.889Z,6.45
2022-08-09T15:24:05.935Z,3.75
2022-08-09T15:26:31.922Z,5.62
2022-08-09T15:29:06.376Z,4.12
2022-08-09T15:31:42.469Z,2.92
2022-08-09T15:34:34.486Z,3.35
2022-08-09T15:36:58.298Z,4.05
2022-08-09T15:39:34.442Z,3.05
2022-08-09T15:42:10.243Z,3.70
2022-08-09T15:44:43.590Z,4.57
2022-08-09T15:47:22.886Z,3.55
2022-08-09T15:52:38.083Z,3.75
2022-08-09T15:55:18.394Z,2.50
2022-08-09T15:57:53.358Z,2.30
2022-08-09T16:00:27.765Z,2.33
2022-08-09T16:03:01.076Z,3.67
2022-08-09T16:05:54.667Z,3.00
2022-08-09T16:08:15.165Z,3.30
2022-08-09T16:10:55.773Z,2.40
2022-08-09T16:14:04.709Z,2.27
2022-08-09T16:16:10.740Z,2.20
2022-08-09T16:18:36.801Z,4.17
2022-08-09T16:21:11.970Z,1.98
2022-08-09T16:23:54.873Z,2.22
2022-08-09T16:26:33.827Z,1.87
2022-08-09T16:28:58.783Z,2.75
2022-08-09T16:32:10.463Z,2.25
2022-08-09T16:34:08.276Z,5.37
2022-08-09T16:36:41.925Z,2.62
2022-08-09T16:39:21.210Z,3.35
2022-08-09T16:42:04.035Z,2.87
2022-08-09T16:44:35.709Z,3.15
2022-08-09T16:48:42.405Z,3.15
2022-08-09T16:52:32.227Z,3.52
2022-08-09T16:55:08.055Z,4.15
2022-08-09T17:00:23.778Z,3.50
2022-08-09T17:02:58.171Z,4.45
2022-08-09T17:06:08.403Z,5.28
2022-08-09T17:08:46.351Z,5.85
2022-08-09T17:10:43.580Z,4.37
2022-08-09T17:13:20.461Z,3.92
2022-08-09T17:16:02.310Z,3.72
2022-08-09T17:18:36.078Z,6.30
2022-08-09T17:21:12.408Z,5.72
2022-08-09T17:24:27.222Z,4.72
2022-08-09T17:26:38.301Z,4.10
2022-08-09T17:32:02.330Z,4.10
2022-08-09T17:35:02.106Z,6.95
2022-08-09T17:38:02.150Z,5.87
2022-08-09T17:40:16.993Z,6.05
2022-08-09T17:42:47.781Z,4.62
2022-08-09T17:45:37.411Z,5.03
2022-08-09T17:48:02.816Z,4.42
2022-08-09T17:50:37.033Z,4.62
2022-08-09T17:53:19.695Z,7.30
2022-08-09T17:55:49.379Z,4.45
2022-08-09T17:58:19.229Z,6.00
2022-08-09T18:00:54.978Z,5.17
2022-08-09T18:03:30.372Z,5.28
2022-08-09T18:06:04.810Z,6.67
2022-08-09T18:08:40.996Z,6.50
2022-08-09T18:11:16.381Z,4.80
2022-08-09T18:13:58.956Z,4.08
2022-08-09T18:16:29.348Z,4.35
2022-08-09T18:20:54.790Z,6.17
2022-08-09T18:21:57.658Z,4.95
2022-08-09T18:24:40.852Z,5.65
2022-08-09T18:28:02.211Z,4.47
2022-08-09T18:30:34.624Z,5.58
2022-08-09T18:32:36.107Z,5.78
2022-08-09T18:35:11.894Z,4.85
2022-08-09T18:37:54.888Z,7.53
2022-08-09T18:40:26.792Z,6.90
2022-08-09T18:42:59.749Z,6.83
2022-08-09T18:46:46.993Z,6.60
2022-08-09T18:48:10.181Z,6.72
2022-08-09T18:50:47.285Z,6.65
2022-08-09T18:53:25.832Z,7.60
2022-08-09T18:56:05.465Z,8.48
2022-08-09T18:59:01.039Z,5.33
2022-08-09T19:12:10.968Z,7.25
2022-08-09T19:14:46.234Z,6.47
2022-08-09T19:18:17.150Z,5.97
2022-08-09T19:21:00.617Z,6.75
2022-08-09T19:31:45.228Z,6.78
2022-08-09T19:34:39.361Z,7.40
2022-08-09T19:37:03.771Z,6.78
2022-08-09T19:40:04.769Z,7.62
2022-08-09T19:42:28.258Z,5.75
2022-08-09T19:45:40.451Z,11.12
2022-08-09T19:49:00.662Z,7.80
2022-08-09T19:51:31.356Z,7.12
2022-08-09T19:57:01.808Z,10.00
2022-08-09T20:00:05.453Z,8.18
2022-08-09T20:05:25.036Z,7.83
2022-08-09T20:20:27.207Z,6.37
2022-08-09T20:22:56.473Z,8.20
2022-08-09T20:28:47.590Z,8.50
2022-08-09T20:31:16.791Z,12.23
2022-08-09T20:33:58.429Z,6.28
2022-08-09T20:36:41.593Z,7.92
2022-08-09T20:39:29.175Z,8.23
2022-08-09T20:41:52.003Z,6.93
2022-08-09T20:44:29.594Z,6.42
2022-08-09T20:47:03.767Z,6.85
2022-08-09T20:49:38.513Z,6.60
2022-08-09T20:52:14.760Z,5.87
2022-08-09T20:54:52.606Z,6.33
2022-08-09T20:57:32.174Z,5.40
2022-08-09T21:00:20.353Z,6.95
2022-08-09T21:02:37.868Z,6.15
2022-08-09T21:05:52.813Z,7.25
2022-08-09T21:07:56.208Z,8.23
2022-08-09T21:10:30.424Z,8.88
2022-08-09T21:13:04.343Z,6.72
2022-08-09T21:15:38.178Z,5.75
2022-08-09T21:18:29.636Z,5.87
2022-08-09T21:20:54.033Z,8.20
2022-08-09T21:23:36.106Z,7.53
2022-08-09T21:25:59.679Z,7.00
2022-08-09T21:28:36.460Z,6.75
2022-08-09T21:31:17.766Z,5.47
2022-08-09T21:33:49.428Z,8.43
2022-08-09T21:36:28.841Z,7.60
2022-08-09T21:39:07.383Z,6.80
2022-08-09T21:42:03.782Z,6.90
2022-08-09T21:44:33.992Z,6.72
2022-08-09T21:46:54.611Z,5.10
2022-08-09T21:49:29.325Z,7.22
2022-08-09T21:52:04.382Z,9.33
2022-08-09T21:54:46.244Z,7.75
2022-08-09T21:57:25.544Z,6.55
2022-08-09T21:59:54.825Z,6.03
2022-08-09T22:02:35.952Z,8.50
2022-08-09T22:05:16.788Z,6.67
2022-08-09T22:07:41.730Z,9.78
2022-08-09T22:10:13.788Z,8.60
2022-08-09T22:12:49.993Z,7.65
2022-08-09T22:15:34.625Z,7.28
2022-08-09T22:18:01.970Z,7.45
2022-08-09T22:20:35.587Z,6.22
2022-08-09T22:23:10.799Z,9.93
2022-08-09T22:26:06.708Z,5.80
2022-08-09T22:28:21.052Z,5.45
2022-08-09T22:30:55.098Z,9.23
2022-08-09T22:33:37.558Z,8.05
2022-08-09T22:38:39.822Z,8.30
2022-08-09T22:41:14.529Z,11.50
2022-08-09T22:44:01.642Z,9.63
2022-08-09T22:48:11.989Z,8.23
2022-08-09T22:48:59.920Z,7.65
2022-08-09T22:51:34.176Z,9.85
2022-08-09T22:54:10.897Z,8.30
2022-08-09T22:56:45.377Z,7.85
2022-08-09T22:59:55.587Z,7.92
2022-08-09T23:01:58.082Z,7.33
2022-08-09T23:04:32.561Z,4.95
2022-08-09T23:07:31.027Z,8.53
2022-08-09T23:10:02.886Z,4.72
2022-08-09T23:12:36.059Z,7.80
2022-08-09T23:15:10.604Z,6.50
2022-08-09T23:17:43.706Z,14.70
2022-08-09T23:20:16.788Z,6.25
2022-08-09T23:22:50.028Z,8.50
2022-08-09T23:25:23.200Z,6.65
2022-08-09T23:28:14.018Z,5.08
2022-08-09T23:30:30.968Z,6.65
2022-08-09T23:33:03.891Z,5.05
2022-08-09T23:36:04.367Z,5.60
2022-08-09T23:38:14.187Z,4.85
2022-08-09T23:40:47.389Z,6.78
2022-08-09T23:43:20.616Z,6.03
2022-08-09T23:45:53.790Z,4.90
2022-08-09T23:48:26.941Z,7.85
2022-08-09T23:51:00.342Z,5.55
2022-08-09T23:53:37.848Z,6.85
2022-08-09T23:56:08.804Z,6.47
2022-08-09T23:58:42.103Z,5.85
